sensor_id;sensor_type;location;lat;lon;timestamp;pressure;altitude;pressure_sealevel;temperature;humidity
71306;BME280;59097;46.858;18.632;2023-04-06T00:02:20;100631.72;;;0.65;66.28
71306;BME280;59097;46.858;18.632;2023-04-06T00:04:49;100625.78;;;0.63;66.50
71306;BME280;59097;46.858;18.632;2023-04-06T00:07:17;100572.13;;;0.27;67.33
71306;BME280;59097;46.858;18.632;2023-04-06T00:09:45;100598.44;;;0.35;67.06
71306;BME280;59097;46.858;18.632;2023-04-06T00:12:14;100626.41;;;0.55;67.06
71306;BME280;59097;46.858;18.632;2023-04-06T00:14:42;100623.66;;;0.57;67.12
71306;BME280;59097;46.858;18.632;2023-04-06T00:17:10;100615.72;;;0.47;66.37
71306;BME280;59097;46.858;18.632;2023-04-06T00:19:38;100626.16;;;0.47;66.85
71306;BME280;59097;46.858;18.632;2023-04-06T00:22:10;100622.16;;;0.43;66.93
71306;BME280;59097;46.858;18.632;2023-04-06T00:24:39;100626.87;;;0.38;67.95
71306;BME280;59097;46.858;18.632;2023-04-06T00:27:06;100601.16;;;0.23;67.31
71306;BME280;59097;46.858;18.632;2023-04-06T00:29:35;100612.41;;;0.34;67.17
71306;BME280;59097;46.858;18.632;2023-04-06T00:32:03;100605.66;;;0.32;66.85
71306;BME280;59097;46.858;18.632;2023-04-06T00:34:31;100607.66;;;0.28;66.45
71306;BME280;59097;46.858;18.632;2023-04-06T00:36:59;100605.06;;;0.28;66.85
71306;BME280;59097;46.858;18.632;2023-04-06T00:39:28;100595.47;;;0.18;67.43
71306;BME280;59097;46.858;18.632;2023-04-06T00:41:56;100604.09;;;0.18;67.50
71306;BME280;59097;46.858;18.632;2023-04-06T00:44:24;100589.16;;;-0.02;67.92
71306;BME280;59097;46.858;18.632;2023-04-06T00:46:53;100579.44;;;-0.11;68.04
71306;BME280;59097;46.858;18.632;2023-04-06T00:49:21;100611.09;;;0.07;68.83
71306;BME280;59097;46.858;18.632;2023-04-06T00:51:49;100595.44;;;-0.05;69.07
71306;BME280;59097;46.858;18.632;2023-04-06T00:54:17;100612.88;;;0.06;68.20
71306;BME280;59097;46.858;18.632;2023-04-06T00:56:45;100609.91;;;-0.01;68.50
71306;BME280;59097;46.858;18.632;2023-04-06T00:59:13;100598.41;;;-0.09;68.96
71306;BME280;59097;46.858;18.632;2023-04-06T01:01:42;100607.75;;;-0.18;69.34
71306;BME280;59097;46.858;18.632;2023-04-06T01:04:12;100588.44;;;-0.26;69.69
71306;BME280;59097;46.858;18.632;2023-04-06T01:06:40;100597.41;;;-0.30;70.16
71306;BME280;59097;46.858;18.632;2023-04-06T01:09:08;100593.53;;;-0.36;69.65
71306;BME280;59097;46.858;18.632;2023-04-06T01:11:37;100614.50;;;-0.26;70.10
71306;BME280;59097;46.858;18.632;2023-04-06T01:14:06;100591.47;;;-0.43;71.71
71306;BME280;59097;46.858;18.632;2023-04-06T01:16:35;100608.97;;;-0.45;71.17
71306;BME280;59097;46.858;18.632;2023-04-06T01:19:11;100614.91;;;-0.43;71.54
71306;BME280;59097;46.858;18.632;2023-04-06T01:21:40;100612.78;;;-0.49;71.83
71306;BME280;59097;46.858;18.632;2023-04-06T01:24:10;100605.63;;;-0.58;72.66
71306;BME280;59097;46.858;18.632;2023-04-06T01:26:38;100596.56;;;-0.77;72.69
71306;BME280;59097;46.858;18.632;2023-04-06T01:29:07;100611.53;;;-0.68;73.25
71306;BME280;59097;46.858;18.632;2023-04-06T01:31:35;100587.44;;;-0.82;73.36
71306;BME280;59097;46.858;18.632;2023-04-06T01:34:04;100608.78;;;-0.77;74.71
71306;BME280;59097;46.858;18.632;2023-04-06T01:36:33;100609.81;;;-0.80;73.93
71306;BME280;59097;46.858;18.632;2023-04-06T01:39:01;100612.03;;;-0.86;74.52
71306;BME280;59097;46.858;18.632;2023-04-06T01:41:30;100619.84;;;-0.86;74.72
71306;BME280;59097;46.858;18.632;2023-04-06T01:43:59;100595.97;;;-1.04;74.79
71306;BME280;59097;46.858;18.632;2023-04-06T01:46:27;100615.09;;;-0.92;75.04
71306;BME280;59097;46.858;18.632;2023-04-06T01:48:56;100610.94;;;-0.95;74.80
71306;BME280;59097;46.858;18.632;2023-04-06T01:51:28;100599.19;;;-1.00;74.58
71306;BME280;59097;46.858;18.632;2023-04-06T01:53:56;100605.12;;;-0.98;74.53
71306;BME280;59097;46.858;18.632;2023-04-06T01:56:25;100609.28;;;-0.96;75.10
71306;BME280;59097;46.858;18.632;2023-04-06T01:58:55;100590.28;;;-1.09;75.48
71306;BME280;59097;46.858;18.632;2023-04-06T02:01:25;100616.09;;;-1.06;76.05
71306;BME280;59097;46.858;18.632;2023-04-06T02:03:53;100616.91;;;-1.05;75.47
71306;BME280;59097;46.858;18.632;2023-04-06T02:06:22;100607.44;;;-1.06;75.36
71306;BME280;59097;46.858;18.632;2023-04-06T02:08:50;100610.25;;;-1.09;75.81
71306;BME280;59097;46.858;18.632;2023-04-06T02:11:19;100589.00;;;-1.27;75.95
71306;BME280;59097;46.858;18.632;2023-04-06T02:13:47;100604.34;;;-1.11;76.22
71306;BME280;59097;46.858;18.632;2023-04-06T02:16:15;100607.78;;;-1.11;76.24
71306;BME280;59097;46.858;18.632;2023-04-06T02:18:45;100608.19;;;-1.17;76.18
71306;BME280;59097;46.858;18.632;2023-04-06T02:21:13;100608.31;;;-1.18;76.27
71306;BME280;59097;46.858;18.632;2023-04-06T02:23:42;100563.22;;;-1.43;76.50
71306;BME280;59097;46.858;18.632;2023-04-06T02:26:10;100602.50;;;-1.22;76.87
71306;BME280;59097;46.858;18.632;2023-04-06T02:28:38;100608.75;;;-1.24;77.89
71306;BME280;59097;46.858;18.632;2023-04-06T02:31:07;100594.22;;;-1.40;78.11
71306;BME280;59097;46.858;18.632;2023-04-06T02:33:35;100604.22;;;-1.34;78.24
71306;BME280;59097;46.858;18.632;2023-04-06T02:36:04;100610.34;;;-1.35;77.85
71306;BME280;59097;46.858;18.632;2023-04-06T02:38:32;100608.19;;;-1.41;79.77
71306;BME280;59097;46.858;18.632;2023-04-06T02:41:00;100606.91;;;-1.35;79.02
71306;BME280;59097;46.858;18.632;2023-04-06T02:43:28;100602.53;;;-1.35;78.87
71306;BME280;59097;46.858;18.632;2023-04-06T02:45:58;100599.84;;;-1.33;78.98
71306;BME280;59097;46.858;18.632;2023-04-06T02:48:26;100597.78;;;-1.41;78.20
71306;BME280;59097;46.858;18.632;2023-04-06T02:50:54;100597.16;;;-1.44;78.56
71306;BME280;59097;46.858;18.632;2023-04-06T02:53:22;100597.50;;;-1.49;78.64
71306;BME280;59097;46.858;18.632;2023-04-06T02:55:50;100597.72;;;-1.52;79.49
71306;BME280;59097;46.858;18.632;2023-04-06T02:58:19;100570.81;;;-1.76;79.41
71306;BME280;59097;46.858;18.632;2023-04-06T03:00:51;100577.47;;;-1.72;79.34
71306;BME280;59097;46.858;18.632;2023-04-06T03:03:19;100592.09;;;-1.58;79.36
71306;BME280;59097;46.858;18.632;2023-04-06T03:05:48;100588.69;;;-1.59;80.43
71306;BME280;59097;46.858;18.632;2023-04-06T03:08:18;100569.25;;;-1.78;79.87
71306;BME280;59097;46.858;18.632;2023-04-06T03:10:46;100567.69;;;-1.81;79.61
71306;BME280;59097;46.858;18.632;2023-04-06T03:13:15;100581.72;;;-1.71;79.47
71306;BME280;59097;46.858;18.632;2023-04-06T03:15:43;100564.47;;;-1.72;79.51
71306;BME280;59097;46.858;18.632;2023-04-06T03:18:12;100591.06;;;-1.68;79.83
71306;BME280;59097;46.858;18.632;2023-04-06T03:20:40;100594.53;;;-1.80;80.30
71306;BME280;59097;46.858;18.632;2023-04-06T03:23:09;100581.44;;;-1.79;79.98
71306;BME280;59097;46.858;18.632;2023-04-06T03:25:37;100574.91;;;-1.84;79.70
71306;BME280;59097;46.858;18.632;2023-04-06T03:28:08;100582.87;;;-1.75;80.18
71306;BME280;59097;46.858;18.632;2023-04-06T03:30:37;100570.41;;;-1.82;80.00
71306;BME280;59097;46.858;18.632;2023-04-06T03:33:05;100547.97;;;-1.96;79.85
71306;BME280;59097;46.858;18.632;2023-04-06T03:35:35;100595.97;;;-1.64;79.89
71306;BME280;59097;46.858;18.632;2023-04-06T03:38:05;100554.19;;;-1.86;79.64
71306;BME280;59097;46.858;18.632;2023-04-06T03:40:33;100567.94;;;-1.84;79.93
71306;BME280;59097;46.858;18.632;2023-04-06T03:43:02;100586.41;;;-1.76;80.59
71306;BME280;59097;46.858;18.632;2023-04-06T03:45:32;100602.53;;;-1.71;80.10
71306;BME280;59097;46.858;18.632;2023-04-06T03:48:00;100601.47;;;-1.68;80.55
71306;BME280;59097;46.858;18.632;2023-04-06T03:50:30;100587.16;;;-1.86;80.21
71306;BME280;59097;46.858;18.632;2023-04-06T03:52:59;100559.03;;;-2.05;80.28
71306;BME280;59097;46.858;18.632;2023-04-06T03:55:27;100600.56;;;-1.80;80.51
71306;BME280;59097;46.858;18.632;2023-04-06T03:57:56;100600.16;;;-1.99;81.38
71306;BME280;59097;46.858;18.632;2023-04-06T04:00:25;100598.06;;;-1.94;81.69
71306;BME280;59097;46.858;18.632;2023-04-06T04:02:55;100603.78;;;-1.89;81.58
71306;BME280;59097;46.858;18.632;2023-04-06T04:05:23;100581.97;;;-1.99;81.03
71306;BME280;59097;46.858;18.632;2023-04-06T04:07:53;100597.78;;;-1.89;80.78
71306;BME280;59097;46.858;18.632;2023-04-06T04:10:22;100579.37;;;-1.99;80.65
71306;BME280;59097;46.858;18.632;2023-04-06T04:12:50;100597.66;;;-1.88;80.48
71306;BME280;59097;46.858;18.632;2023-04-06T04:15:19;100585.72;;;-1.91;80.72
71306;BME280;59097;46.858;18.632;2023-04-06T04:17:47;100567.34;;;-2.13;80.99
71306;BME280;59097;46.858;18.632;2023-04-06T04:20:17;100606.91;;;-1.97;81.61
71306;BME280;59097;46.858;18.632;2023-04-06T04:22:45;100610.97;;;-1.93;81.68
71306;BME280;59097;46.858;18.632;2023-04-06T04:25:13;100608.91;;;-2.00;81.75
71306;BME280;59097;46.858;18.632;2023-04-06T04:27:43;100608.38;;;-1.93;81.31
71306;BME280;59097;46.858;18.632;2023-04-06T04:30:11;100578.56;;;-2.12;82.45
71306;BME280;59097;46.858;18.632;2023-04-06T04:32:40;100599.13;;;-1.97;81.93
71306;BME280;59097;46.858;18.632;2023-04-06T04:35:09;100614.41;;;-1.92;82.42
71306;BME280;59097;46.858;18.632;2023-04-06T04:37:37;100611.09;;;-1.81;81.48
71306;BME280;59097;46.858;18.632;2023-04-06T04:40:06;100608.56;;;-1.83;81.64
71306;BME280;59097;46.858;18.632;2023-04-06T04:42:35;100569.28;;;-2.04;81.70
71306;BME280;59097;46.858;18.632;2023-04-06T04:45:05;100546.75;;;-2.03;81.03
71306;BME280;59097;46.858;18.632;2023-04-06T04:47:33;100589.87;;;-1.88;81.01
71306;BME280;59097;46.858;18.632;2023-04-06T04:50:03;100615.94;;;-1.64;81.83
71306;BME280;59097;46.858;18.632;2023-04-06T04:52:31;100614.03;;;-1.50;80.61
71306;BME280;59097;46.858;18.632;2023-04-06T04:55:01;100622.34;;;-1.45;80.67
71306;BME280;59097;46.858;18.632;2023-04-06T04:57:29;100617.34;;;-1.48;80.27
71306;BME280;59097;46.858;18.632;2023-04-06T04:59:58;100615.69;;;-1.49;80.75
71306;BME280;59097;46.858;18.632;2023-04-06T05:02:26;100616.84;;;-1.53;81.49
71306;BME280;59097;46.858;18.632;2023-04-06T05:04:54;100618.34;;;-1.38;80.93
71306;BME280;59097;46.858;18.632;2023-04-06T05:07:23;100625.38;;;-1.14;80.38
71306;BME280;59097;46.858;18.632;2023-04-06T05:09:52;100609.16;;;-1.54;81.77
71306;BME280;59097;46.858;18.632;2023-04-06T05:12:20;100576.53;;;-1.71;81.88
71306;BME280;59097;46.858;18.632;2023-04-06T05:14:49;100607.53;;;-1.32;81.79
71306;BME280;59097;46.858;18.632;2023-04-06T05:17:18;100620.94;;;-1.01;80.01
71306;BME280;59097;46.858;18.632;2023-04-06T05:19:46;100628.44;;;-1.20;80.11
71306;BME280;59097;46.858;18.632;2023-04-06T05:22:15;100574.44;;;-1.30;80.41
71306;BME280;59097;46.858;18.632;2023-04-06T05:24:46;100595.47;;;-0.85;79.50
71306;BME280;59097;46.858;18.632;2023-04-06T05:27:15;100616.03;;;-0.58;78.86
71306;BME280;59097;46.858;18.632;2023-04-06T05:29:43;100603.78;;;-0.45;78.34
71306;BME280;59097;46.858;18.632;2023-04-06T05:32:11;100604.44;;;-0.31;76.87
71306;BME280;59097;46.858;18.632;2023-04-06T05:34:40;100599.53;;;-0.46;77.42
71306;BME280;59097;46.858;18.632;2023-04-06T05:37:08;100597.38;;;0.05;76.19
71306;BME280;59097;46.858;18.632;2023-04-06T05:39:36;100604.44;;;0.36;74.76
71306;BME280;59097;46.858;18.632;2023-04-06T05:42:05;100603.84;;;0.54;73.98
71306;BME280;59097;46.858;18.632;2023-04-06T05:44:37;100602.06;;;0.66;73.64
71306;BME280;59097;46.858;18.632;2023-04-06T05:47:06;100576.53;;;0.70;73.47
71306;BME280;59097;46.858;18.632;2023-04-06T05:49:34;100586.69;;;0.30;75.42
71306;BME280;59097;46.858;18.632;2023-04-06T05:52:03;100597.25;;;0.93;74.34
71306;BME280;59097;46.858;18.632;2023-04-06T05:54:32;100544.91;;;0.52;74.40
71306;BME280;59097;46.858;18.632;2023-04-06T05:57:02;100587.62;;;1.25;72.99
71306;BME280;59097;46.858;18.632;2023-04-06T05:59:31;100595.63;;;1.13;73.29
71306;BME280;59097;46.858;18.632;2023-04-06T06:02:00;100567.06;;;1.32;72.35
71306;BME280;59097;46.858;18.632;2023-04-06T06:04:30;100571.84;;;0.95;73.27
71306;BME280;59097;46.858;18.632;2023-04-06T06:06:58;100545.06;;;0.82;73.22
71306;BME280;59097;46.858;18.632;2023-04-06T06:09:27;100581.69;;;1.76;71.21
71306;BME280;59097;46.858;18.632;2023-04-06T06:11:56;100577.38;;;1.34;70.90
71306;BME280;59097;46.858;18.632;2023-04-06T06:14:24;100575.16;;;1.29;73.61
71306;BME280;59097;46.858;18.632;2023-04-06T06:16:52;100567.97;;;1.42;71.38
71306;BME280;59097;46.858;18.632;2023-04-06T06:19:21;100570.47;;;1.95;71.09
71306;BME280;59097;46.858;18.632;2023-04-06T06:21:49;100568.44;;;1.98;71.37
71306;BME280;59097;46.858;18.632;2023-04-06T06:24:17;100573.09;;;1.95;69.67
71306;BME280;59097;46.858;18.632;2023-04-06T06:26:46;100568.75;;;2.44;70.06
71306;BME280;59097;46.858;18.632;2023-04-06T06:29:16;100563.00;;;2.11;67.60
71306;BME280;59097;46.858;18.632;2023-04-06T06:31:44;100561.00;;;2.92;66.94
71306;BME280;59097;46.858;18.632;2023-04-06T06:34:13;100558.94;;;3.25;65.82
71306;BME280;59097;46.858;18.632;2023-04-06T06:36:41;100557.84;;;3.17;64.67
71306;BME280;59097;46.858;18.632;2023-04-06T06:39:12;100553.28;;;3.10;63.86
71306;BME280;59097;46.858;18.632;2023-04-06T06:41:40;100556.56;;;3.50;63.73
71306;BME280;59097;46.858;18.632;2023-04-06T06:44:08;100532.31;;;3.29;62.72
71306;BME280;59097;46.858;18.632;2023-04-06T06:46:37;100546.69;;;3.91;61.09
71306;BME280;59097;46.858;18.632;2023-04-06T06:49:06;100538.37;;;3.95;61.69
71306;BME280;59097;46.858;18.632;2023-04-06T06:51:34;100540.75;;;4.25;61.02
71306;BME280;59097;46.858;18.632;2023-04-06T06:54:02;100538.87;;;4.35;61.57
71306;BME280;59097;46.858;18.632;2023-04-06T06:56:30;100526.41;;;4.47;61.04
71306;BME280;59097;46.858;18.632;2023-04-06T06:58:59;100519.69;;;4.62;59.63
71306;BME280;59097;46.858;18.632;2023-04-06T07:01:26;100523.19;;;4.88;58.28
71306;BME280;59097;46.858;18.632;2023-04-06T07:03:55;100537.09;;;4.98;55.92
71306;BME280;59097;46.858;18.632;2023-04-06T07:06:23;100537.03;;;5.26;57.78
71306;BME280;59097;46.858;18.632;2023-04-06T07:08:51;100542.81;;;5.12;56.24
71306;BME280;59097;46.858;18.632;2023-04-06T07:11:20;100509.00;;;4.99;54.69
71306;BME280;59097;46.858;18.632;2023-04-06T07:13:48;100534.84;;;5.21;52.25
71306;BME280;59097;46.858;18.632;2023-04-06T07:16:16;100520.75;;;5.48;53.00
71306;BME280;59097;46.858;18.632;2023-04-06T07:18:45;100533.34;;;5.62;52.29
71306;BME280;59097;46.858;18.632;2023-04-06T07:21:13;100532.66;;;5.60;52.98
71306;BME280;59097;46.858;18.632;2023-04-06T07:23:41;100545.72;;;4.91;50.61
71306;BME280;59097;46.858;18.632;2023-04-06T07:26:09;100534.91;;;5.29;51.57
71306;BME280;59097;46.858;18.632;2023-04-06T07:28:37;100516.47;;;5.72;50.55
71306;BME280;59097;46.858;18.632;2023-04-06T07:31:06;100539.22;;;5.56;50.12
71306;BME280;59097;46.858;18.632;2023-04-06T07:33:34;100531.78;;;6.28;49.68
71306;BME280;59097;46.858;18.632;2023-04-06T07:36:03;100536.41;;;6.34;48.45
71306;BME280;59097;46.858;18.632;2023-04-06T07:38:31;100523.94;;;6.53;47.39
71306;BME280;59097;46.858;18.632;2023-04-06T07:41:00;100527.00;;;5.90;47.28
71306;BME280;59097;46.858;18.632;2023-04-06T07:43:31;100528.16;;;6.29;47.06
71306;BME280;59097;46.858;18.632;2023-04-06T07:45:59;100526.53;;;6.37;47.17
71306;BME280;59097;46.858;18.632;2023-04-06T07:48:28;100521.31;;;6.53;47.19
71306;BME280;59097;46.858;18.632;2023-04-06T07:51:04;100520.81;;;6.07;46.90
71306;BME280;59097;46.858;18.632;2023-04-06T07:53:35;100507.97;;;6.46;47.68
71306;BME280;59097;46.858;18.632;2023-04-06T07:56:03;100514.09;;;6.63;47.01
71306;BME280;59097;46.858;18.632;2023-04-06T07:58:31;100495.03;;;6.93;46.92
71306;BME280;59097;46.858;18.632;2023-04-06T08:01:01;100484.97;;;6.80;45.96
71306;BME280;59097;46.858;18.632;2023-04-06T08:03:29;100500.16;;;7.35;44.70
71306;BME280;59097;46.858;18.632;2023-04-06T08:05:58;100495.72;;;7.19;44.95
71306;BME280;59097;46.858;18.632;2023-04-06T08:08:26;100505.59;;;7.17;44.95
71306;BME280;59097;46.858;18.632;2023-04-06T08:10:54;100493.66;;;7.70;43.69
71306;BME280;59097;46.858;18.632;2023-04-06T08:13:22;100500.03;;;7.99;42.84
71306;BME280;59097;46.858;18.632;2023-04-06T08:15:50;100491.88;;;8.56;40.59
71306;BME280;59097;46.858;18.632;2023-04-06T08:18:19;100499.81;;;10.49;38.71
71306;BME280;59097;46.858;18.632;2023-04-06T08:20:47;100496.34;;;11.54;35.94
71306;BME280;59097;46.858;18.632;2023-04-06T08:23:16;100473.88;;;9.71;38.59
71306;BME280;59097;46.858;18.632;2023-04-06T08:25:44;100481.97;;;9.03;39.75
71306;BME280;59097;46.858;18.632;2023-04-06T08:28:12;100488.91;;;9.04;41.57
71306;BME280;59097;46.858;18.632;2023-04-06T08:30:41;100475.38;;;8.46;40.77
71306;BME280;59097;46.858;18.632;2023-04-06T08:33:10;100486.47;;;9.17;40.88
71306;BME280;59097;46.858;18.632;2023-04-06T08:35:38;100488.47;;;9.53;38.13
71306;BME280;59097;46.858;18.632;2023-04-06T08:38:06;100450.78;;;10.24;36.02
71306;BME280;59097;46.858;18.632;2023-04-06T08:40:38;100472.03;;;10.45;35.49
71306;BME280;59097;46.858;18.632;2023-04-06T08:43:10;100479.28;;;10.93;35.69
71306;BME280;59097;46.858;18.632;2023-04-06T08:45:41;100480.03;;;10.87;35.17
71306;BME280;59097;46.858;18.632;2023-04-06T08:48:09;100481.63;;;11.52;33.96
71306;BME280;59097;46.858;18.632;2023-04-06T08:50:39;100467.16;;;11.33;34.91
71306;BME280;59097;46.858;18.632;2023-04-06T08:53:08;100476.56;;;11.63;33.95
71306;BME280;59097;46.858;18.632;2023-04-06T08:55:37;100477.59;;;12.31;32.14
71306;BME280;59097;46.858;18.632;2023-04-06T08:58:06;100441.09;;;12.72;32.76
71306;BME280;59097;46.858;18.632;2023-04-06T09:00:38;100462.97;;;12.61;34.30
71306;BME280;59097;46.858;18.632;2023-04-06T09:03:07;100429.06;;;11.19;33.23
71306;BME280;59097;46.858;18.632;2023-04-06T09:05:36;100463.91;;;11.65;35.60
71306;BME280;59097;46.858;18.632;2023-04-06T09:08:04;100436.81;;;12.97;32.53
71306;BME280;59097;46.858;18.632;2023-04-06T09:10:32;100460.81;;;12.37;32.87
71306;BME280;59097;46.858;18.632;2023-04-06T09:13:04;100459.38;;;13.14;32.28
71306;BME280;59097;46.858;18.632;2023-04-06T09:15:32;100450.56;;;12.27;32.36
71306;BME280;59097;46.858;18.632;2023-04-06T09:18:01;100449.53;;;11.25;33.79
71306;BME280;59097;46.858;18.632;2023-04-06T09:20:30;100434.81;;;11.23;35.97
71306;BME280;59097;46.858;18.632;2023-04-06T09:22:58;100425.12;;;10.88;36.70
71306;BME280;59097;46.858;18.632;2023-04-06T09:25:26;100433.59;;;10.05;37.80
71306;BME280;59097;46.858;18.632;2023-04-06T09:27:59;100437.03;;;11.19;35.34
71306;BME280;59097;46.858;18.632;2023-04-06T09:30:28;100426.94;;;9.94;36.56
71306;BME280;59097;46.858;18.632;2023-04-06T09:32:57;100427.34;;;11.05;36.54
71306;BME280;59097;46.858;18.632;2023-04-06T09:35:27;100400.78;;;11.05;34.62
71306;BME280;59097;46.858;18.632;2023-04-06T09:37:58;100400.63;;;10.64;35.99
71306;BME280;59097;46.858;18.632;2023-04-06T09:40:26;100409.84;;;9.97;38.09
71306;BME280;59097;46.858;18.632;2023-04-06T09:42:56;100414.59;;;9.87;37.49
71306;BME280;59097;46.858;18.632;2023-04-06T09:45:29;100424.63;;;9.91;37.39
71306;BME280;59097;46.858;18.632;2023-04-06T09:47:59;100408.25;;;9.37;37.55
71306;BME280;59097;46.858;18.632;2023-04-06T09:50:28;100410.06;;;9.52;37.68
71306;BME280;59097;46.858;18.632;2023-04-06T09:52:58;100398.09;;;9.26;40.17
71306;BME280;59097;46.858;18.632;2023-04-06T09:55:36;100415.75;;;9.63;39.38
71306;BME280;59097;46.858;18.632;2023-04-06T09:58:12;100415.12;;;9.97;39.27
71306;BME280;59097;46.858;18.632;2023-04-06T10:00:54;100403.47;;;9.77;38.48
71306;BME280;59097;46.858;18.632;2023-04-06T10:03:49;100387.41;;;9.78;38.05
71306;BME280;59097;46.858;18.632;2023-04-06T10:06:22;100398.47;;;9.67;37.11
71306;BME280;59097;46.858;18.632;2023-04-06T10:08:52;100390.38;;;10.19;39.24
71306;BME280;59097;46.858;18.632;2023-04-06T10:11:22;100392.16;;;9.83;37.41
71306;BME280;59097;46.858;18.632;2023-04-06T10:13:51;100385.13;;;9.75;39.40
71306;BME280;59097;46.858;18.632;2023-04-06T10:16:19;100386.09;;;9.89;37.42
71306;BME280;59097;46.858;18.632;2023-04-06T10:18:52;100397.97;;;9.93;37.84
71306;BME280;59097;46.858;18.632;2023-04-06T10:21:25;100387.78;;;9.31;39.65
71306;BME280;59097;46.858;18.632;2023-04-06T10:23:58;100365.69;;;9.24;39.39
71306;BME280;59097;46.858;18.632;2023-04-06T10:26:27;100376.37;;;9.31;38.99
71306;BME280;59097;46.858;18.632;2023-04-06T10:29:03;100327.34;;;9.20;39.45
71306;BME280;59097;46.858;18.632;2023-04-06T10:31:32;100369.13;;;9.69;38.54
71306;BME280;59097;46.858;18.632;2023-04-06T10:34:01;100375.09;;;9.56;37.76
71306;BME280;59097;46.858;18.632;2023-04-06T10:36:34;100377.44;;;9.80;37.44
71306;BME280;59097;46.858;18.632;2023-04-06T10:39:04;100340.41;;;9.22;39.84
71306;BME280;59097;46.858;18.632;2023-04-06T10:41:43;100362.97;;;9.47;38.39
71306;BME280;59097;46.858;18.632;2023-04-06T10:44:23;100335.03;;;9.30;38.92
71306;BME280;59097;46.858;18.632;2023-04-06T10:46:59;100364.22;;;9.51;39.21
71306;BME280;59097;46.858;18.632;2023-04-06T10:49:31;100334.19;;;9.73;38.82
71306;BME280;59097;46.858;18.632;2023-04-06T10:51:59;100347.41;;;10.24;38.53
71306;BME280;59097;46.858;18.632;2023-04-06T10:54:27;100342.69;;;10.19;37.73
71306;BME280;59097;46.858;18.632;2023-04-06T10:56:56;100350.81;;;10.03;37.37
71306;BME280;59097;46.858;18.632;2023-04-06T10:59:24;100347.97;;;9.54;37.30
71306;BME280;59097;46.858;18.632;2023-04-06T11:01:53;100327.41;;;9.85;38.58
71306;BME280;59097;46.858;18.632;2023-04-06T11:04:24;100331.28;;;9.68;38.78
71306;BME280;59097;46.858;18.632;2023-04-06T11:06:53;100337.50;;;9.96;37.49
71306;BME280;59097;46.858;18.632;2023-04-06T11:09:27;100339.56;;;10.16;36.60
71306;BME280;59097;46.858;18.632;2023-04-06T11:11:55;100321.31;;;10.06;37.29
71306;BME280;59097;46.858;18.632;2023-04-06T11:14:24;100324.94;;;10.20;37.46
71306;BME280;59097;46.858;18.632;2023-04-06T11:16:54;100327.34;;;10.36;37.38
71306;BME280;59097;46.858;18.632;2023-04-06T11:19:23;100338.97;;;10.35;36.49
71306;BME280;59097;46.858;18.632;2023-04-06T11:21:51;100324.69;;;10.36;37.19
71306;BME280;59097;46.858;18.632;2023-04-06T11:24:23;100312.13;;;10.44;38.28
71306;BME280;59097;46.858;18.632;2023-04-06T11:26:54;100319.25;;;10.65;37.47
71306;BME280;59097;46.858;18.632;2023-04-06T11:29:25;100310.72;;;10.27;37.99
71306;BME280;59097;46.858;18.632;2023-04-06T11:31:59;100312.66;;;10.61;36.42
71306;BME280;59097;46.858;18.632;2023-04-06T11:34:29;100291.94;;;10.71;35.86
71306;BME280;59097;46.858;18.632;2023-04-06T11:37:02;100303.62;;;10.77;38.45
71306;BME280;59097;46.858;18.632;2023-04-06T11:39:50;100301.84;;;10.35;37.73
71306;BME280;59097;46.858;18.632;2023-04-06T11:42:26;100272.22;;;10.10;35.46
71306;BME280;59097;46.858;18.632;2023-04-06T11:44:57;100290.12;;;10.08;36.92
71306;BME280;59097;46.858;18.632;2023-04-06T11:47:36;100306.38;;;10.20;36.08
71306;BME280;59097;46.858;18.632;2023-04-06T11:50:10;100307.97;;;9.99;36.27
71306;BME280;59097;46.858;18.632;2023-04-06T11:52:40;100311.13;;;10.09;35.87
71306;BME280;59097;46.858;18.632;2023-04-06T11:55:14;100288.50;;;9.86;36.40
71306;BME280;59097;46.858;18.632;2023-04-06T11:57:43;100295.81;;;10.05;37.22
71306;BME280;59097;46.858;18.632;2023-04-06T12:00:11;100293.25;;;10.11;36.00
71306;BME280;59097;46.858;18.632;2023-04-06T12:02:45;100303.47;;;9.79;35.97
71306;BME280;59097;46.858;18.632;2023-04-06T12:05:14;100298.06;;;9.87;36.55
71306;BME280;59097;46.858;18.632;2023-04-06T12:07:43;100285.38;;;9.82;36.22
71306;BME280;59097;46.858;18.632;2023-04-06T12:10:11;100284.13;;;9.78;37.04
71306;BME280;59097;46.858;18.632;2023-04-06T12:12:40;100288.91;;;9.89;37.34
71306;BME280;59097;46.858;18.632;2023-04-06T12:15:09;100288.66;;;9.48;37.86
71306;BME280;59097;46.858;18.632;2023-04-06T12:17:37;100295.88;;;9.25;37.22
71306;BME280;59097;46.858;18.632;2023-04-06T12:20:06;100290.84;;;9.30;36.52
71306;BME280;59097;46.858;18.632;2023-04-06T12:22:52;100284.94;;;9.28;36.97
71306;BME280;59097;46.858;18.632;2023-04-06T12:25:20;100285.41;;;9.32;36.14
71306;BME280;59097;46.858;18.632;2023-04-06T12:27:48;100293.56;;;9.52;36.66
71306;BME280;59097;46.858;18.632;2023-04-06T12:30:17;100270.97;;;9.34;35.72
71306;BME280;59097;46.858;18.632;2023-04-06T12:32:45;100264.28;;;9.38;36.53
71306;BME280;59097;46.858;18.632;2023-04-06T12:35:16;100265.44;;;9.50;34.79
71306;BME280;59097;46.858;18.632;2023-04-06T12:37:44;100281.72;;;9.83;35.00
71306;BME280;59097;46.858;18.632;2023-04-06T12:40:12;100285.16;;;9.98;35.37
71306;BME280;59097;46.858;18.632;2023-04-06T12:42:42;100282.81;;;10.10;34.39
71306;BME280;59097;46.858;18.632;2023-04-06T12:45:11;100276.03;;;10.22;35.63
71306;BME280;59097;46.858;18.632;2023-04-06T12:47:39;100285.31;;;10.60;34.88
71306;BME280;59097;46.858;18.632;2023-04-06T12:50:07;100274.94;;;10.38;34.64
71306;BME280;59097;46.858;18.632;2023-04-06T12:52:36;100278.78;;;10.35;34.58
71306;BME280;59097;46.858;18.632;2023-04-06T12:55:04;100273.06;;;10.32;35.17
71306;BME280;59097;46.858;18.632;2023-04-06T12:57:33;100259.91;;;10.02;34.84